Terminal Aerodrome Forecast
Issued by NWS

Home | Current Version | Previous Version | Text Only | Print | Product List | Glossary On
Versions: 1 2 3 4 5 6 7 8 9 10 11 12
000
FTUS45 KABQ 060520
TAFFMN
TAF
KFMN 060520Z 0606/0706 15010KT P6SM BKN100
     FM060900 10010KT P6SM SCT120 SCT200
     FM061700 17014G24KT P6SM SCT100
     FM070000 22018G28KT P6SM BKN100
     FM070300 25007KT P6SM FEW100=

USA.gov is the U.S. government's official web portal to all federal, state and local government web resources and services.